Pagrindinis puslapis
METAR-TAF:

METAR-TAF

Oro uostai :

Perudža, Italija

platuma: 43-05N, ilguma: 012-30E, Aukštis: 208 m

Dabartinis oras

Ataskaita buvo paskelbta 1 valandą ir 1 minutes, ne 09:50 UTC
Vėjas 2 kt nuo kintamojo kryptimis
Temperatūra 20°C
Drėgmė 46%
Slėgis 1023 hPa
Matomumas 10 km arba daugiau
nėra debesų žemiau 1500 m ir nėra kamuolinių lietaus debesų

METAR: LIRZ 210950Z VRB02KT CAVOK 20/08 Q1023

Laikas: 12:51 (10:51 UTC)

Prognozė

Ataskaita buvo paskelbta 5 valandos ir 51 minutes, ne 05:00 UTC
Prognozė galioja nuo 21 metu 06 UTC su 22 metu 06 UTC
Vėjas 8 kt iš Šiaurės/Šiaurės Rytų
Matomumas 10 km arba daugiau
Išsisklaidę debesys ne aukštis 3000 ft
Laikinai
nuo 21 metu 21 UTC su 22 metu 06 UTC
lietus

TAF: LIRZ 210500Z 2106/2206 02008KT 9999 SCT030 TEMPO 2121/2206 RA

Orai ataskaitas ir orų prognozės (METAR, TAF).

turimą stotys yra geltonos ir raudonos taškus žemėlapyje.

Perkelti pele per norėdami pamatyti stoties vardą.

Tada spustelėkite, norėdami matyti oro stebėjimo ir prognozės.

Norėdami pakeisti žemėlapį: spustelėkite ant žalios mygtukų su juodo kryžiaus žemyn,; žalią mygtuką su brūkšneliu, jei norite nutolinti; arba žalių rodyklių gretimoms žemėlapius.


METAR-TAF: